Time;durP1;ratioP1;P1;durP2;ratioP2;P2;SDS_P1;SDS_P2;PMS_P1;PMS_P2;Temp;Humidity;BMP_temperature;BMP_pressure;BME280_temperature;BME280_humidity;BME280_pressure;Samples;Min_cycle;Max_cycle;Signal;HPM_P1;HPM_P2
2021/03/28 00:00:11;;;;;;;9.37;2.80;;;;;;;;;;5081879;28;20315;-67
2021/03/28 00:02:53;;;;;;;11.07;2.80;;;;;;;;;;5085609;28;20347;-68
2021/03/28 00:05:22;;;;;;;10.05;2.80;;;;;;;;;;5086556;28;20312;-67
2021/03/28 00:07:51;;;;;;;7.10;2.70;;;;;;;;;;5085354;28;20028;-67
2021/03/28 00:10:25;;;;;;;8.60;2.93;;;;;;;;;;5086230;28;20397;-67
2021/03/28 00:12:58;;;;;;;15.90;2.97;;;;;;;;;;5078755;28;20283;-67
2021/03/28 00:15:24;;;;;;;12.00;2.70;;;;;;;;;;5085630;28;20357;-67
2021/03/28 00:17:50;;;;;;;9.40;2.20;;;;;;;;;;5086115;28;20313;-68
2021/03/28 00:20:15;;;;;;;11.33;2.97;;;;;;;;;;5083638;28;20332;-67
2021/03/28 00:22:43;;;;;;;7.90;2.23;;;;;;;;;;5083396;28;20032;-68
2021/03/28 00:25:16;;;;;;;7.23;2.23;;;;;;;;;;5086627;28;20032;-67
2021/03/28 00:27:49;;;;;;;8.00;2.27;;;;;;;;;;5091036;28;20274;-67
2021/03/28 00:30:15;;;;;;;9.83;2.40;;;;;;;;;;5089423;28;20865;-67
2021/03/28 00:32:42;;;;;;;7.50;2.17;;;;;;;;;;5080134;28;20411;-67
2021/03/28 00:35:09;;;;;;;8.37;2.37;;;;;;;;;;5065613;28;20031;-67
2021/03/28 00:37:35;;;;;;;9.13;2.60;;;;;;;;;;5085366;28;20286;-67
2021/03/28 00:40:12;;;;;;;5.33;2.17;;;;;;;;;;5085938;28;20633;-67
2021/03/28 00:42:51;;;;;;;11.00;2.10;;;;;;;;;;5083704;28;20028;-67
2021/03/28 00:45:29;;;;;;;13.00;2.60;;;;;;;;;;5085827;28;20254;-67
2021/03/28 00:48:10;;;;;;;5.63;2.10;;;;;;;;;;5074653;28;20336;-67
2021/03/28 00:50:48;;;;;;;8.57;2.17;;;;;;;;;;5086114;28;20281;-67
2021/03/28 00:53:19;;;;;;;11.90;2.83;;;;;;;;;;5083308;28;20290;-68
2021/03/28 00:55:58;;;;;;;9.37;2.33;;;;;;;;;;5088054;28;20372;-68
2021/03/28 00:58:26;;;;;;;6.50;1.70;;;;;;;;;;5086775;28;20290;-67
2021/03/28 01:01:10;;;;;;;4.43;2.03;;;;;;;;;;5088147;28;20672;-67
2021/03/28 01:03:58;;;;;;;10.37;2.30;;;;;;;;;;5081552;28;20290;-68
2021/03/28 01:06:33;;;;;;;9.63;2.30;;;;;;;;;;5081464;28;20274;-67
2021/03/28 01:09:14;;;;;;;12.63;2.37;;;;;;;;;;5086933;28;20785;-67
2021/03/28 01:11:58;;;;;;;8.03;2.10;;;;;;;;;;5083239;28;20818;-67
2021/03/28 01:14:41;;;;;;;9.53;2.33;;;;;;;;;;5085349;28;20392;-67
2021/03/28 01:17:18;;;;;;;8.40;2.10;;;;;;;;;;5083535;28;20255;-67
2021/03/28 01:20:02;;;;;;;15.43;2.80;;;;;;;;;;5081472;28;20761;-67
2021/03/28 01:22:33;;;;;;;11.83;2.33;;;;;;;;;;5076254;28;20786;-67
2021/03/28 01:25:13;;;;;;;6.80;2.20;;;;;;;;;;5083236;28;20313;-67
2021/03/28 01:27:47;;;;;;;10.47;2.20;;;;;;;;;;5088181;28;20262;-67
2021/03/28 01:30:14;;;;;;;8.30;2.00;;;;;;;;;;5087174;28;20398;-67
2021/03/28 01:32:39;;;;;;;16.77;3.30;;;;;;;;;;5086641;28;20781;-67
2021/03/28 01:35:12;;;;;;;11.70;2.70;;;;;;;;;;5086554;28;20270;-67
2021/03/28 01:37:37;;;;;;;;;;;;;;;;;;5081092;28;20131;-67
2021/03/28 01:40:11;;;;;;;5.85;1.95;;;;;;;;;;5084519;28;19981;-67
2021/03/28 01:42:54;;;;;;;11.23;2.50;;;;;;;;;;5088387;28;20027;-67
2021/03/28 01:45:41;;;;;;;7.55;2.40;;;;;;;;;;5089350;28;20308;-67
2021/03/28 01:48:20;;;;;;;11.03;3.00;;;;;;;;;;5066292;28;20027;-67
2021/03/28 01:50:48;;;;;;;11.23;2.17;;;;;;;;;;5089938;28;20630;-67
2021/03/28 01:53:20;;;;;;;10.57;2.50;;;;;;;;;;5086771;28;20270;-67
2021/03/28 01:55:53;;;;;;;7.85;2.72;;;;;;;;;;5090911;28;20325;-67
2021/03/28 01:58:21;;;;;;;14.33;3.20;;;;;;;;;;5090178;28;20028;-67
2021/03/28 02:01:02;;;;;;;7.97;2.90;;;;;;;;;;5090186;28;20606;-68
2021/03/28 02:03:34;;;;;;;7.87;2.37;;;;;;;;;;5088432;28;20301;-68
2021/03/28 02:06:18;;;;;;;9.13;2.70;;;;;;;;;;5091480;28;20310;-67
2021/03/28 02:08:49;;;;;;;7.83;3.03;;;;;;;;;;5085211;28;20277;-67
2021/03/28 02:11:28;;;;;;;6.10;2.70;;;;;;;;;;5088543;28;20272;-67
2021/03/28 02:14:02;;;;;;;11.47;2.90;;;;;;;;;;5085918;28;20274;-67
2021/03/28 02:16:33;;;;;;;8.17;3.00;;;;;;;;;;5090575;28;20254;-67
2021/03/28 02:18:59;;;;;;;6.57;2.67;;;;;;;;;;5087805;28;20664;-67
2021/03/28 02:21:42;;;;;;;10.63;3.00;;;;;;;;;;5089067;28;20270;-67
2021/03/28 02:24:26;;;;;;;9.63;2.40;;;;;;;;;;5085827;28;20103;-67
2021/03/28 02:27:10;;;;;;;10.70;2.30;;;;;;;;;;5089553;28;20374;-67
2021/03/28 02:29:38;;;;;;;11.27;2.90;;;;;;;;;;5087269;28;20317;-67
2021/03/28 02:32:06;;;;;;;15.73;2.63;;;;;;;;;;5085214;28;20891;-67
2021/03/28 02:34:42;;;;;;;8.13;2.97;;;;;;;;;;5086360;28;20769;-67
2021/03/28 02:37:27;;;;;;;12.10;3.07;;;;;;;;;;5086680;28;20274;-67
2021/03/28 02:39:55;;;;;;;12.07;3.07;;;;;;;;;;5069913;28;20634;-67
2021/03/28 02:42:23;;;;;;;10.90;2.80;;;;;;;;;;5087274;28;20282;-67
2021/03/28 02:44:52;;;;;;;8.40;2.70;;;;;;;;;;5088207;28;20278;-67
2021/03/28 02:47:18;;;;;;;9.30;3.17;;;;;;;;;;5086746;28;20273;-67
2021/03/28 02:49:52;;;;;;;7.47;2.47;;;;;;;;;;5090238;28;20254;-67
2021/03/28 02:52:32;;;;;;;7.60;2.53;;;;;;;;;;5086961;28;20020;-67
2021/03/28 02:55:08;;;;;;;16.60;3.27;;;;;;;;;;5090419;28;20266;-67
2021/03/28 02:57:45;;;;;;;5.67;2.37;;;;;;;;;;5086876;28;20289;-67
2021/03/28 03:00:10;;;;;;;12.60;2.53;;;;;;;;;;5085333;28;20282;-67
2021/03/28 03:02:50;;;;;;;11.80;2.60;;;;;;;;;;5088980;28;20285;-67
2021/03/28 03:05:26;;;;;;;10.80;2.40;;;;;;;;;;5089320;28;20031;-67
2021/03/28 03:07:57;;;;;;;13.33;3.70;;;;;;;;;;5088764;28;20269;-67
2021/03/28 03:10:26;;;;;;;9.73;2.60;;;;;;;;;;5089258;28;20262;-67
2021/03/28 03:12:51;;;;;;;8.10;2.30;;;;;;;;;;5087354;28;20262;-67
2021/03/28 03:15:35;;;;;;;10.00;2.33;;;;;;;;;;5089132;28;20339;-67
2021/03/28 03:18:06;;;;;;;9.13;2.37;;;;;;;;;;5087594;28;20384;-67
2021/03/28 03:20:48;;;;;;;13.40;3.00;;;;;;;;;;5087625;28;20299;-67
2021/03/28 03:23:22;;;;;;;7.77;2.10;;;;;;;;;;5085730;28;20282;-67
2021/03/28 03:26:07;;;;;;;8.73;2.77;;;;;;;;;;5087690;28;20393;-67
2021/03/28 03:28:35;;;;;;;7.70;2.10;;;;;;;;;;5088255;28;20281;-67
2021/03/28 03:31:13;;;;;;;16.87;2.70;;;;;;;;;;5086718;28;20311;-67
2021/03/28 03:33:41;;;;;;;6.77;2.30;;;;;;;;;;5086209;28;20262;-67
2021/03/28 03:36:06;;;;;;;7.13;2.20;;;;;;;;;;5089299;28;20262;-67
2021/03/28 03:38:44;;;;;;;8.30;2.20;;;;;;;;;;5084630;28;20268;-67
2021/03/28 03:41:12;;;;;;;8.27;2.57;;;;;;;;;;5084525;28;20386;-67
2021/03/28 03:43:51;;;;;;;7.00;2.03;;;;;;;;;;5088641;28;20282;-67
2021/03/28 03:46:28;;;;;;;10.20;2.27;;;;;;;;;;5088239;28;20329;-67
2021/03/28 03:49:12;;;;;;;12.30;3.23;;;;;;;;;;5088850;28;20286;-67
2021/03/28 03:51:37;;;;;;;9.40;2.20;;;;;;;;;;5086535;28;20326;-67
2021/03/28 03:54:03;;;;;;;9.47;2.80;;;;;;;;;;5085685;28;20353;-68
2021/03/28 03:56:46;;;;;;;7.13;2.63;;;;;;;;;;5086517;28;20379;-67
2021/03/28 03:59:17;;;;;;;11.37;2.37;;;;;;;;;;5086998;28;20449;-67
2021/03/28 04:01:52;;;;;;;11.43;2.63;;;;;;;;;;5091264;28;20274;-67
2021/03/28 04:04:22;;;;;;;11.87;2.50;;;;;;;;;;5091564;28;20321;-67
2021/03/28 04:06:48;;;;;;;14.00;2.47;;;;;;;;;;5090741;28;20415;-67
2021/03/28 04:09:22;;;;;;;16.10;3.40;;;;;;;;;;5091069;28;20294;-67
2021/03/28 04:11:53;;;;;;;8.77;2.47;;;;;;;;;;5091410;28;20028;-67
2021/03/28 04:14:27;;;;;;;10.53;3.47;;;;;;;;;;5091423;28;20270;-67
2021/03/28 04:16:52;;;;;;;8.57;2.27;;;;;;;;;;5091270;28;20282;-67
2021/03/28 04:19:20;;;;;;;8.63;2.50;;;;;;;;;;5089584;28;20265;-67
2021/03/28 04:21:45;;;;;;;10.73;2.70;;;;;;;;;;5091709;28;20061;-67
2021/03/28 04:24:29;;;;;;;8.53;2.50;;;;;;;;;;5090028;28;20278;-67
2021/03/28 04:27:12;;;;;;;10.10;3.10;;;;;;;;;;5091217;28;20024;-67
2021/03/28 04:29:43;;;;;;;9.63;3.75;;;;;;;;;;5087701;28;20304;-67
2021/03/28 04:32:16;;;;;;;8.63;2.47;;;;;;;;;;5090028;28;20460;-67
2021/03/28 04:34:50;;;;;;;8.00;2.50;;;;;;;;;;5091713;28;20336;-67
2021/03/28 04:37:24;;;;;;;8.33;2.67;;;;;;;;;;5090768;28;20306;-67
2021/03/28 04:39:57;;;;;;;8.73;2.27;;;;;;;;;;5088967;28;20266;-67
2021/03/28 04:42:54;;;;;;;9.35;2.58;;;;;;;;;;5091116;28;20742;-67
2021/03/28 04:45:25;;;;;;;12.10;2.90;;;;;;;;;;5044573;28;20368;-68
2021/03/28 04:47:56;;;;;;;7.57;2.50;;;;;;;;;;5088532;28;20270;-68
2021/03/28 04:50:25;;;;;;;10.17;3.00;;;;;;;;;;5090223;28;20279;-68
2021/03/28 04:53:02;;;;;;;8.80;2.50;;;;;;;;;;5091158;28;20697;-68
2021/03/28 04:55:27;;;;;;;11.13;2.60;;;;;;;;;;5092080;28;20259;-68
2021/03/28 04:58:08;;;;;;;9.13;2.97;;;;;;;;;;5089859;28;20282;-68
2021/03/28 05:00:47;;;;;;;14.80;2.83;;;;;;;;;;5089840;28;20020;-68
2021/03/28 05:03:31;;;;;;;8.00;2.70;;;;;;;;;;5086685;28;20301;-68
2021/03/28 05:06:14;;;;;;;11.10;2.80;;;;;;;;;;5088198;28;20280;-68
2021/03/28 05:08:53;;;;;;;9.33;2.87;;;;;;;;;;5088252;28;20261;-68
2021/03/28 05:11:36;;;;;;;15.20;3.07;;;;;;;;;;5088638;28;20304;-68
2021/03/28 05:14:27;;;;;;;8.27;2.47;;;;;;;;;;5084392;28;20281;-68
2021/03/28 05:16:52;;;;;;;7.40;2.40;;;;;;;;;;5084350;28;20317;-68
2021/03/28 05:19:23;;;;;;;10.50;2.93;;;;;;;;;;5088864;28;20318;-68
2021/03/28 05:22:07;;;;;;;8.70;2.33;;;;;;;;;;5090934;28;20440;-68
2021/03/28 05:24:50;;;;;;;9.33;3.10;;;;;;;;;;5086607;28;20286;-68
2021/03/28 05:27:34;;;;;;;13.57;2.87;;;;;;;;;;5086339;28;20281;-68
2021/03/28 05:30:22;;;;;;;9.37;2.60;;;;;;;;;;5089953;28;20758;-68
2021/03/28 05:32:56;;;;;;;6.60;2.83;;;;;;;;;;5050346;28;20707;-68
2021/03/28 05:35:40;;;;;;;11.40;2.47;;;;;;;;;;5089155;28;20277;-68
2021/03/28 05:38:14;;;;;;;7.17;2.20;;;;;;;;;;5085883;28;20281;-68
2021/03/28 05:40:55;;;;;;;11.13;2.57;;;;;;;;;;5088820;28;20282;-67
2021/03/28 05:43:20;;;;;;;9.23;2.97;;;;;;;;;;5088717;28;20364;-68
2021/03/28 05:45:45;;;;;;;13.67;2.67;;;;;;;;;;5089464;28;20374;-67
2021/03/28 05:48:17;;;;;;;5.63;1.93;;;;;;;;;;5088934;28;20016;-68
2021/03/28 05:50:45;;;;;;;11.17;3.20;;;;;;;;;;5089451;28;20354;-67
2021/03/28 05:53:29;;;;;;;7.30;2.33;;;;;;;;;;5088949;28;20313;-67
2021/03/28 05:56:13;;;;;;;7.90;2.30;;;;;;;;;;5090818;28;20262;-67
2021/03/28 05:58:56;;;;;;;7.63;2.50;;;;;;;;;;5088732;28;20300;-68
2021/03/28 06:01:22;;;;;;;8.73;1.90;;;;;;;;;;5086434;28;20994;-67
2021/03/28 06:04:06;;;;;;;8.50;2.00;;;;;;;;;;5087689;28;20384;-67
2021/03/28 06:06:37;;;;;;;8.13;2.63;;;;;;;;;;5086850;28;20085;-67
2021/03/28 06:09:02;;;;;;;7.83;2.10;;;;;;;;;;5090788;28;20277;-67
2021/03/28 06:11:27;;;;;;;6.07;1.87;;;;;;;;;;5089972;28;20020;-68
2021/03/28 06:14:03;;;;;;;11.03;2.40;;;;;;;;;;5090440;28;20124;-68
2021/03/28 06:16:28;;;;;;;10.47;2.10;;;;;;;;;;5087562;28;20038;-68
2021/03/28 06:19:06;;;;;;;5.73;1.97;;;;;;;;;;5088985;28;20044;-67
2021/03/28 06:21:50;;;;;;;7.70;2.10;;;;;;;;;;5086417;28;20024;-68
2021/03/28 06:24:22;;;;;;;10.80;2.20;;;;;;;;;;5084675;28;20059;-68
2021/03/28 06:27:07;;;;;;;14.90;2.37;;;;;;;;;;5086889;28;20085;-68
2021/03/28 06:29:51;;;;;;;6.30;2.10;;;;;;;;;;5088454;28;20047;-68
2021/03/28 06:32:35;;;;;;;4.83;2.00;;;;;;;;;;5084590;28;20028;-68
2021/03/28 06:35:19;;;;;;;5.23;2.20;;;;;;;;;;5087140;28;20480;-67
2021/03/28 06:38:03;;;;;;;8.57;1.90;;;;;;;;;;5087053;28;20024;-68
2021/03/28 06:40:43;;;;;;;6.77;1.63;;;;;;;;;;5086164;28;20499;-68
2021/03/28 06:43:08;;;;;;;7.47;2.57;;;;;;;;;;5088716;28;20035;-68
2021/03/28 06:45:50;;;;;;;10.17;1.90;;;;;;;;;;5085887;28;20024;-68
2021/03/28 06:48:34;;;;;;;8.25;1.75;;;;;;;;;;5085677;28;20016;-68
2021/03/28 06:51:18;;;;;;;6.53;1.70;;;;;;;;;;5087997;28;20035;-67
2021/03/28 06:54:02;;;;;;;8.17;2.07;;;;;;;;;;5089376;28;20051;-67
2021/03/28 06:56:30;;;;;;;6.47;1.97;;;;;;;;;;5087454;28;20107;-68
2021/03/28 06:58:55;;;;;;;10.53;2.10;;;;;;;;;;5088004;28;20040;-67
2021/03/28 07:01:39;;;;;;;10.23;1.90;;;;;;;;;;5088094;28;20037;-67
2021/03/28 07:04:34;;;;;;;7.03;2.37;;;;;;;;;;5086182;28;20040;-68
2021/03/28 07:06:59;;;;;;;6.00;1.80;;;;;;;;;;5086180;28;20020;-68
2021/03/28 07:09:43;;;;;;;6.23;1.70;;;;;;;;;;5089749;28;20020;-68
2021/03/28 07:12:11;;;;;;;6.80;1.97;;;;;;;;;;5083805;28;20015;-67
2021/03/28 07:15:05;;;;;;;7.83;1.60;;;;;;;;;;5088685;28;20020;-68
2021/03/28 07:17:45;;;;;;;8.30;1.87;;;;;;;;;;5083061;28;20059;-67
2021/03/28 07:20:31;;;;;;;5.47;1.60;;;;;;;;;;5083721;28;20017;-67
2021/03/28 07:23:14;;;;;;;10.13;2.07;;;;;;;;;;5085259;28;20062;-67
2021/03/28 07:25:50;;;;;;;6.57;1.90;;;;;;;;;;5086490;28;20518;-67
2021/03/28 07:28:34;;;;;;;8.73;1.73;;;;;;;;;;5088913;28;20039;-67
2021/03/28 07:31:18;;;;;;;7.37;2.10;;;;;;;;;;5083127;28;20107;-67
2021/03/28 07:33:43;;;;;;;4.23;1.43;;;;;;;;;;5086736;28;20024;-68
2021/03/28 07:36:27;;;;;;;7.90;1.93;;;;;;;;;;5091736;28;20544;-67
2021/03/28 07:39:11;;;;;;;5.37;1.47;;;;;;;;;;5088253;28;20528;-67
2021/03/28 07:42:01;;;;;;;6.50;1.60;;;;;;;;;;5092487;28;20031;-67
2021/03/28 07:44:26;;;;;;;4.93;1.43;;;;;;;;;;5091703;28;20073;-68
2021/03/28 07:47:15;;;;;;;6.50;1.90;;;;;;;;;;5089438;28;20024;-67
2021/03/28 07:49:52;;;;;;;7.70;2.00;;;;;;;;;;5092200;28;20024;-67
2021/03/28 07:52:36;;;;;;;6.07;1.40;;;;;;;;;;5091191;28;20569;-67
2021/03/28 07:55:01;;;;;;;6.63;1.90;;;;;;;;;;5092646;28;20085;-67
2021/03/28 07:57:42;;;;;;;7.80;1.97;;;;;;;;;;5087466;28;20024;-67
2021/03/28 08:00:23;;;;;;;7.87;1.60;;;;;;;;;;5092588;28;20020;-67
2021/03/28 08:03:04;;;;;;;9.07;1.40;;;;;;;;;;5091488;28;20052;-67
2021/03/28 08:05:48;;;;;;;4.53;1.50;;;;;;;;;;5091367;28;20035;-67
2021/03/28 08:08:32;;;;;;;7.57;1.63;;;;;;;;;;5089331;28;20047;-67
2021/03/28 08:11:29;;;;;;;6.87;1.87;;;;;;;;;;5089283;28;20081;-68
2021/03/28 08:14:10;;;;;;;6.13;1.60;;;;;;;;;;5041619;28;20097;-68
2021/03/28 08:16:48;;;;;;;4.30;1.97;;;;;;;;;;5091082;28;20464;-68
2021/03/28 08:19:32;;;;;;;5.07;1.40;;;;;;;;;;5090739;28;20012;-68
2021/03/28 08:22:01;;;;;;;6.33;1.23;;;;;;;;;;5088538;28;20028;-68
2021/03/28 08:24:26;;;;;;;11.37;1.80;;;;;;;;;;5090264;28;20020;-68
2021/03/28 08:27:07;;;;;;;8.70;1.37;;;;;;;;;;5090927;28;20020;-68
2021/03/28 08:29:51;;;;;;;6.33;1.53;;;;;;;;;;5089311;28;20107;-68
2021/03/28 08:32:28;;;;;;;5.23;1.13;;;;;;;;;;5088540;28;20028;-68
2021/03/28 08:35:05;;;;;;;4.10;1.00;;;;;;;;;;5087054;28;20036;-68
2021/03/28 08:37:31;;;;;;;3.93;1.40;;;;;;;;;;5091350;28;20033;-67
2021/03/28 08:40:14;;;;;;;6.23;1.80;;;;;;;;;;5087687;28;20387;-67
2021/03/28 08:42:59;;;;;;;8.60;1.40;;;;;;;;;;5088773;28;20152;-68
2021/03/28 08:45:24;;;;;;;3.47;1.20;;;;;;;;;;5091045;28;20031;-68
2021/03/28 08:48:08;;;;;;;4.30;1.23;;;;;;;;;;5089162;28;20032;-68
2021/03/28 08:50:33;;;;;;;7.27;1.60;;;;;;;;;;5089441;28;20020;-67
2021/03/28 08:53:18;;;;;;;7.17;1.60;;;;;;;;;;5089341;28;20361;-67
2021/03/28 08:55:52;;;;;;;6.43;1.30;;;;;;;;;;5076399;28;20823;-67
2021/03/28 08:58:23;;;;;;;7.17;1.67;;;;;;;;;;5083600;28;20036;-67
2021/03/28 09:00:48;;;;;;;4.10;1.20;;;;;;;;;;5087105;28;20028;-67
2021/03/28 09:03:32;;;;;;;3.77;1.60;;;;;;;;;;5085011;28;20442;-67
2021/03/28 09:06:03;;;;;;;4.50;1.27;;;;;;;;;;5085032;28;20028;-67
2021/03/28 09:08:33;;;;;;;5.47;1.27;;;;;;;;;;5082125;28;20016;-67
2021/03/28 09:11:17;;;;;;;7.93;1.40;;;;;;;;;;5088228;28;20365;-67
2021/03/28 09:13:42;;;;;;;4.67;1.50;;;;;;;;;;5086417;28;20110;-67
2021/03/28 09:16:26;;;;;;;7.43;1.20;;;;;;;;;;5086672;28;20143;-67
2021/03/28 09:19:10;;;;;;;7.30;2.00;;;;;;;;;;5086394;28;20349;-67
2021/03/28 09:21:45;;;;;;;4.50;1.10;;;;;;;;;;5086032;28;20202;-68
2021/03/28 09:24:17;;;;;;;6.57;1.17;;;;;;;;;;5082444;28;20841;-67
2021/03/28 09:26:55;;;;;;;7.23;1.17;;;;;;;;;;5085766;28;20320;-67
2021/03/28 09:29:35;;;;;;;3.63;1.30;;;;;;;;;;5082509;28;20274;-67
2021/03/28 09:32:12;;;;;;;9.17;1.40;;;;;;;;;;5087788;28;20345;-67
2021/03/28 09:34:56;;;;;;;5.60;1.57;;;;;;;;;;5087803;28;20036;-67
2021/03/28 09:37:28;;;;;;;5.77;1.60;;;;;;;;;;5090378;28;20126;-67
2021/03/28 09:39:58;;;;;;;3.45;1.17;;;;;;;;;;5089679;28;20440;-67
2021/03/28 09:42:33;;;;;;;4.20;1.30;;;;;;;;;;5090055;28;20467;-67
2021/03/28 09:45:17;;;;;;;4.13;1.20;;;;;;;;;;5089475;28;20376;-67
2021/03/28 09:47:57;;;;;;;7.87;1.70;;;;;;;;;;5090369;28;20629;-67
2021/03/28 09:50:22;;;;;;;7.03;1.87;;;;;;;;;;5088809;28;20058;-67
2021/03/28 09:52:57;;;;;;;4.33;1.20;;;;;;;;;;5085128;28;20028;-67
2021/03/28 09:55:29;;;;;;;3.80;1.20;;;;;;;;;;5082003;28;20161;-67
2021/03/28 09:57:57;;;;;;;3.67;1.15;;;;;;;;;;5079898;28;20555;-68
2021/03/28 10:00:30;;;;;;;9.57;1.47;;;;;;;;;;5078738;28;20032;-68
2021/03/28 10:03:14;;;;;;;4.27;1.20;;;;;;;;;;5077966;28;20496;-67
2021/03/28 10:05:39;;;;;;;4.33;1.50;;;;;;;;;;5081047;28;20052;-68
2021/03/28 10:08:17;;;;;;;3.83;1.40;;;;;;;;;;5080786;28;20024;-68
2021/03/28 10:10:59;;;;;;;5.03;1.43;;;;;;;;;;5079501;28;20500;-67
2021/03/28 10:13:24;;;;;;;5.18;1.20;;;;;;;;;;5079480;28;20030;-67
2021/03/28 10:15:56;;;;;;;4.33;1.30;;;;;;;;;;5077867;28;20433;-68
2021/03/28 10:18:48;;;;;;;4.68;1.20;;;;;;;;;;5077979;28;20036;-68
2021/03/28 10:21:32;;;;;;;7.90;2.05;;;;;;;;;;5081080;28;20553;-67
2021/03/28 10:24:22;;;;;;;4.27;1.43;;;;;;;;;;5073834;28;20664;-67
2021/03/28 10:26:52;;;;;;;4.10;1.23;;;;;;;;;;5081108;28;20026;-67
2021/03/28 10:29:28;;;;;;;3.10;1.20;;;;;;;;;;5078195;28;20031;-67
2021/03/28 10:32:17;;;;;;;5.47;1.40;;;;;;;;;;5077125;28;20055;-67
2021/03/28 10:34:59;;;;;;;3.30;1.07;;;;;;;;;;5083252;28;20024;-67
2021/03/28 10:37:33;;;;;;;7.47;1.83;;;;;;;;;;5080470;28;20114;-67
2021/03/28 10:40:08;;;;;;;9.40;1.60;;;;;;;;;;5078592;28;20020;-67
2021/03/28 10:42:42;;;;;;;3.43;1.57;;;;;;;;;;5079107;28;20212;-67
2021/03/28 10:45:27;;;;;;;9.00;2.30;;;;;;;;;;5079122;28;20403;-67
2021/03/28 10:47:58;;;;;;;5.77;1.40;;;;;;;;;;5076338;28;20058;-68
2021/03/28 10:50:46;;;;;;;5.33;1.60;;;;;;;;;;5078418;28;20106;-68
2021/03/28 10:53:30;;;;;;;4.67;1.33;;;;;;;;;;5075700;28;20388;-67
2021/03/28 10:56:09;;;;;;;3.30;1.27;;;;;;;;;;5079137;28;20031;-67
2021/03/28 10:58:46;;;;;;;2.60;1.07;;;;;;;;;;5078219;28;20035;-68
2021/03/28 11:01:14;;;;;;;7.17;1.40;;;;;;;;;;5078652;28;20036;-67
2021/03/28 11:03:58;;;;;;;5.90;1.13;;;;;;;;;;5079856;28;20045;-67
2021/03/28 11:06:42;;;;;;;4.80;1.30;;;;;;;;;;5083904;28;20062;-68
2021/03/28 11:09:10;;;;;;;5.70;1.43;;;;;;;;;;5078460;28;20035;-68
2021/03/28 11:11:42;;;;;;;3.40;1.00;;;;;;;;;;5079880;28;20445;-67
2021/03/28 11:14:26;;;;;;;2.17;0.90;;;;;;;;;;5077462;28;20106;-67
2021/03/28 11:16:51;;;;;;;1.77;0.83;;;;;;;;;;5083244;28;20066;-67
2021/03/28 11:19:35;;;;;;;6.20;1.27;;;;;;;;;;5081288;28;20109;-67
2021/03/28 11:22:00;;;;;;;3.80;1.30;;;;;;;;;;5085822;28;20901;-67
2021/03/28 11:24:35;;;;;;;3.13;1.07;;;;;;;;;;5085344;28;20393;-67
2021/03/28 11:27:18;;;;;;;3.97;1.53;;;;;;;;;;5085847;28;20027;-67
2021/03/28 11:29:47;;;;;;;2.73;0.90;;;;;;;;;;5085156;28;20059;-67
2021/03/28 11:32:12;;;;;;;7.27;1.77;;;;;;;;;;5071912;28;20021;-67
2021/03/28 11:34:53;;;;;;;5.37;1.47;;;;;;;;;;5086293;28;20364;-67
2021/03/28 11:37:37;;;;;;;2.13;1.10;;;;;;;;;;5083839;28;20032;-67
2021/03/28 11:40:17;;;;;;;7.37;1.50;;;;;;;;;;5084228;28;20032;-67
2021/03/28 11:42:44;;;;;;;4.70;1.27;;;;;;;;;;5079281;28;20383;-67
2021/03/28 11:45:25;;;;;;;8.17;1.10;;;;;;;;;;5083095;28;20529;-68
2021/03/28 11:47:52;;;;;;;3.63;1.23;;;;;;;;;;5081360;28;20027;-67
2021/03/28 11:50:18;;;;;;;3.53;1.23;;;;;;;;;;5081566;28;20024;-68
2021/03/28 11:52:56;;;;;;;4.27;1.13;;;;;;;;;;5078579;28;20039;-68
2021/03/28 11:55:32;;;;;;;3.80;1.30;;;;;;;;;;5078899;28;20028;-68
2021/03/28 11:58:08;;;;;;;3.80;1.37;;;;;;;;;;5081504;28;20145;-67
2021/03/28 12:00:45;;;;;;;3.67;1.23;;;;;;;;;;5084472;28;20023;-68
2021/03/28 12:03:23;;;;;;;4.17;1.43;;;;;;;;;;5085890;28;20044;-67
2021/03/28 12:05:51;;;;;;;4.27;1.20;;;;;;;;;;5084060;28;20458;-68
2021/03/28 12:08:17;;;;;;;3.47;1.30;;;;;;;;;;5082704;28;20371;-67
2021/03/28 12:10:42;;;;;;;6.17;1.30;;;;;;;;;;5084324;28;20036;-68
2021/03/28 12:13:36;;;;;;;2.53;1.13;;;;;;;;;;5083256;28;20032;-67
2021/03/28 12:16:04;;;;;;;3.23;1.23;;;;;;;;;;5059997;28;20412;-67
2021/03/28 12:18:29;;;;;;;3.43;1.00;;;;;;;;;;5081268;28;20046;-67
2021/03/28 12:21:04;;;;;;;3.33;1.17;;;;;;;;;;5079042;28;20472;-67
2021/03/28 12:23:29;;;;;;;5.03;1.27;;;;;;;;;;5087077;28;20035;-67
2021/03/28 12:26:07;;;;;;;3.47;1.43;;;;;;;;;;5090386;28;20046;-67
2021/03/28 12:28:41;;;;;;;5.90;1.40;;;;;;;;;;5088475;28;20035;-67
2021/03/28 12:31:25;;;;;;;4.17;1.33;;;;;;;;;;5083329;28;20534;-68
2021/03/28 12:33:55;;;;;;;7.50;1.47;;;;;;;;;;5089982;28;20028;-67
2021/03/28 12:36:20;;;;;;;3.40;1.13;;;;;;;;;;5087768;28;20115;-68
2021/03/28 12:38:48;;;;;;;5.00;1.20;;;;;;;;;;5086091;28;20716;-68
2021/03/28 12:41:13;;;;;;;6.27;1.67;;;;;;;;;;5087908;28;20024;-67
2021/03/28 12:43:48;;;;;;;5.57;1.27;;;;;;;;;;5086837;28;20042;-67
2021/03/28 12:46:28;;;;;;;7.13;1.87;;;;;;;;;;5068216;28;20016;-68
2021/03/28 12:49:13;;;;;;;3.23;1.50;;;;;;;;;;5080536;28;20020;-68
2021/03/28 12:51:39;;;;;;;5.07;1.30;;;;;;;;;;5085196;28;20024;-67
2021/03/28 12:54:17;;;;;;;2.73;0.90;;;;;;;;;;5089860;28;20060;-68
2021/03/28 12:56:47;;;;;;;4.67;1.50;;;;;;;;;;5082778;28;20036;-68
2021/03/28 12:59:30;;;;;;;4.23;1.20;;;;;;;;;;5082020;28;20034;-67
2021/03/28 13:02:09;;;;;;;5.17;1.63;;;;;;;;;;5084812;28;20032;-68
2021/03/28 13:04:35;;;;;;;7.73;1.40;;;;;;;;;;5084741;28;20131;-68
2021/03/28 13:07:04;;;;;;;6.40;2.33;;;;;;;;;;5083421;28;20023;-67
2021/03/28 13:09:32;;;;;;;6.37;1.40;;;;;;;;;;5080745;28;20027;-68
2021/03/28 13:12:11;;;;;;;5.67;1.40;;;;;;;;;;5087361;28;20020;-67
2021/03/28 13:14:44;;;;;;;6.00;1.60;;;;;;;;;;5088826;28;20039;-67
2021/03/28 13:17:17;;;;;;;3.83;1.30;;;;;;;;;;5080187;28;20101;-67
2021/03/28 13:19:44;;;;;;;4.80;1.20;;;;;;;;;;5078775;28;20036;-67
2021/03/28 13:22:24;;;;;;;4.60;1.83;;;;;;;;;;5086592;28;20034;-67
2021/03/28 13:24:50;;;;;;;5.17;1.40;;;;;;;;;;5086721;28;20063;-68
2021/03/28 13:27:19;;;;;;;7.37;1.27;;;;;;;;;;5075990;28;20035;-67
2021/03/28 13:29:55;;;;;;;3.40;1.67;;;;;;;;;;5088150;28;20051;-67
2021/03/28 13:32:30;;;;;;;3.87;1.27;;;;;;;;;;5086453;28;20055;-67
2021/03/28 13:34:57;;;;;;;4.10;1.50;;;;;;;;;;5087283;28;20035;-68
2021/03/28 13:37:22;;;;;;;2.60;1.03;;;;;;;;;;5085247;28;20361;-67
2021/03/28 13:40:00;;;;;;;2.53;1.27;;;;;;;;;;5084147;28;20046;-67
2021/03/28 13:42:28;;;;;;;4.50;1.17;;;;;;;;;;5086468;28;20081;-68
2021/03/28 13:44:54;;;;;;;7.23;2.00;;;;;;;;;;5086488;28;20543;-67
2021/03/28 13:47:31;;;;;;;6.10;2.10;;;;;;;;;;5085649;28;20110;-67
2021/03/28 13:50:15;;;;;;;4.10;1.63;;;;;;;;;;5083674;28;20468;-68
2021/03/28 13:52:41;;;;;;;3.43;1.40;;;;;;;;;;5084005;28;20119;-67
2021/03/28 13:55:07;;;;;;;3.47;1.27;;;;;;;;;;5088711;28;20028;-67
2021/03/28 13:57:34;;;;;;;3.77;1.30;;;;;;;;;;5084168;28;20029;-67
2021/03/28 14:00:19;;;;;;;5.03;1.40;;;;;;;;;;5086055;28;20035;-67
2021/03/28 14:02:44;;;;;;;5.80;1.27;;;;;;;;;;5072542;28;20134;-67
2021/03/28 14:05:13;;;;;;;4.17;1.20;;;;;;;;;;5085256;28;20103;-67
2021/03/28 14:07:41;;;;;;;8.27;1.77;;;;;;;;;;5074867;28;20025;-67
2021/03/28 14:10:14;;;;;;;4.07;1.37;;;;;;;;;;5083757;28;20050;-68
2021/03/28 14:13:00;;;;;;;4.63;1.40;;;;;;;;;;5086882;28;20067;-67
2021/03/28 14:15:32;;;;;;;5.93;1.67;;;;;;;;;;5084461;28;20126;-67
2021/03/28 14:17:59;;;;;;;;;;;;;;;;;;5082439;28;20483;-67
2021/03/28 14:20:35;;;;;;;4.37;1.47;;;;;;;;;;5083930;28;19918;-68
2021/03/28 14:23:12;;;;;;;3.20;0.90;;;;;;;;;;5086324;28;20368;-67
2021/03/28 14:25:40;;;;;;;3.03;1.47;;;;;;;;;;5086232;28;20024;-67
2021/03/28 14:28:24;;;;;;;3.73;1.10;;;;;;;;;;5086746;28;20137;-67
2021/03/28 14:30:57;;;;;;;4.47;1.30;;;;;;;;;;5086112;28;20066;-68
2021/03/28 14:33:26;;;;;;;11.30;1.70;;;;;;;;;;5085434;28;20520;-67
2021/03/28 14:36:06;;;;;;;5.97;1.30;;;;;;;;;;5087200;28;20061;-67
2021/03/28 14:38:32;;;;;;;3.43;1.30;;;;;;;;;;5080840;28;20031;-67
2021/03/28 14:41:11;;;;;;;3.67;1.40;;;;;;;;;;5085624;28;20028;-67
2021/03/28 14:44:08;;;;;;;3.07;1.40;;;;;;;;;;5086933;28;20071;-67
2021/03/28 14:46:34;;;;;;;5.13;1.70;;;;;;;;;;5039122;28;20034;-67
2021/03/28 14:49:18;;;;;;;3.17;1.13;;;;;;;;;;5082020;28;20032;-68
2021/03/28 14:51:46;;;;;;;6.43;1.30;;;;;;;;;;5086492;28;20088;-67
2021/03/28 14:54:30;;;;;;;7.60;1.93;;;;;;;;;;5073728;28;20100;-68
2021/03/28 14:57:01;;;;;;;5.27;1.37;;;;;;;;;;5085285;28;20051;-68
2021/03/28 14:59:32;;;;;;;8.37;2.30;;;;;;;;;;5076116;28;20586;-68
2021/03/28 15:02:06;;;;;;;4.70;1.37;;;;;;;;;;5083937;28;20685;-67
2021/03/28 15:04:47;;;;;;;11.30;1.60;;;;;;;;;;5084406;28;20090;-68
2021/03/28 15:07:16;;;;;;;6.10;1.43;;;;;;;;;;5080129;28;20055;-68
2021/03/28 15:10:00;;;;;;;10.23;2.07;;;;;;;;;;5083719;28;20032;-68
2021/03/28 15:12:39;;;;;;;6.80;1.80;;;;;;;;;;5079638;28;20701;-68
2021/03/28 15:15:19;;;;;;;6.23;1.37;;;;;;;;;;5088301;28;20617;-68
2021/03/28 15:17:53;;;;;;;6.33;1.60;;;;;;;;;;5087651;28;20486;-68
2021/03/28 15:20:27;;;;;;;6.60;1.80;;;;;;;;;;5086965;28;20028;-68
2021/03/28 15:22:54;;;;;;;3.30;1.30;;;;;;;;;;5085885;28;20036;-68
2021/03/28 15:25:22;;;;;;;6.00;1.90;;;;;;;;;;5080778;28;20024;-68
2021/03/28 15:27:52;;;;;;;5.20;1.40;;;;;;;;;;5086298;28;20031;-68